createdAt,value
2022-11-18T00:01:07.583Z,83.46
2022-11-18T00:03:34.421Z,83.50
2022-11-18T00:06:01.081Z,83.28
2022-11-18T00:08:27.896Z,83.12
2022-11-18T00:10:54.503Z,83.34
2022-11-18T00:13:39.797Z,83.34
2022-11-18T00:16:08.344Z,83.33
2022-11-18T00:18:35.208Z,83.23
2022-11-18T00:21:02.414Z,83.20
2022-11-18T00:23:29.536Z,83.37
2022-11-18T00:25:56.462Z,83.18
2022-11-18T00:28:23.388Z,83.26
2022-11-18T00:30:50.146Z,83.36
2022-11-18T00:33:16.846Z,83.40
2022-11-18T00:35:43.524Z,83.43
2022-11-18T00:38:10.257Z,83.11
2022-11-18T00:40:36.937Z,83.16
2022-11-18T00:43:03.649Z,83.22
2022-11-18T00:45:30.426Z,83.16
2022-11-18T00:47:57.162Z,83.22
2022-11-18T00:50:24.788Z,82.90
2022-11-18T00:52:51.492Z,82.82
2022-11-18T00:55:18.274Z,82.47
2022-11-18T00:57:45.025Z,82.44
2022-11-18T01:00:12.045Z,82.14
2022-11-18T01:02:38.820Z,82.12
2022-11-18T01:05:12.830Z,82.03
2022-11-18T01:07:39.679Z,82.08
2022-11-18T01:10:06.467Z,82.34
2022-11-18T01:12:54.454Z,82.08
2022-11-18T01:15:21.412Z,82.18
2022-11-18T01:17:48.126Z,82.04
2022-11-18T01:20:15.842Z,81.62
2022-11-18T01:22:42.571Z,81.54
2022-11-18T01:25:09.476Z,81.53
2022-11-18T01:27:36.159Z,81.63
2022-11-18T01:30:03.070Z,81.29
2022-11-18T01:32:29.722Z,81.24
2022-11-18T01:34:56.434Z,80.99
2022-11-18T01:37:23.228Z,80.97
2022-11-18T01:39:49.992Z,80.80
2022-11-18T01:42:16.985Z,80.70
2022-11-18T01:45:05.295Z,80.60
2022-11-18T01:47:35.829Z,80.84
2022-11-18T01:50:02.640Z,80.60
2022-11-18T01:52:29.325Z,80.41
2022-11-18T01:54:58.289Z,80.56
2022-11-18T01:57:27.623Z,80.50
2022-11-18T01:59:55.304Z,80.52
2022-11-18T02:02:22.855Z,80.59
2022-11-18T02:05:54.499Z,80.26
2022-11-18T02:08:21.248Z,80.32
2022-11-18T02:10:48.190Z,80.50
2022-11-18T02:13:14.965Z,80.28
2022-11-18T02:15:44.702Z,80.17
2022-11-18T02:18:23.864Z,80.20
2022-11-18T02:20:51.458Z,79.86
2022-11-18T02:23:42.645Z,79.92
2022-11-18T02:26:21.713Z,79.81
2022-11-18T02:28:57.659Z,79.62
2022-11-18T02:31:27.999Z,79.62
2022-11-18T02:33:58.987Z,79.41
2022-11-18T02:36:40.003Z,79.16
2022-11-18T02:39:13.655Z,79.36
2022-11-18T02:41:40.920Z,79.00
2022-11-18T02:44:11.046Z,78.98
2022-11-18T02:46:38.795Z,79.03
2022-11-18T02:49:10.861Z,79.10
2022-11-18T02:51:37.629Z,78.84
2022-11-18T02:54:06.734Z,79.08
2022-11-18T02:56:34.250Z,78.92
2022-11-18T02:59:01.141Z,78.83
2022-11-18T03:01:29.026Z,78.83
2022-11-18T03:03:56.190Z,79.02
2022-11-18T03:06:33.045Z,78.84
2022-11-18T03:09:09.117Z,79.07
2022-11-18T03:12:14.586Z,79.09
2022-11-18T03:14:47.324Z,79.02
2022-11-18T03:17:20.483Z,78.89
2022-11-18T03:19:56.086Z,78.99
2022-11-18T03:22:52.275Z,78.62
2022-11-18T03:25:19.049Z,78.88
2022-11-18T03:27:57.044Z,79.03
2022-11-18T03:30:23.861Z,79.24
2022-11-18T03:32:56.440Z,79.27
2022-11-18T03:35:24.136Z,79.23
2022-11-18T03:37:52.231Z,79.25
2022-11-18T03:40:20.046Z,78.96
2022-11-18T03:42:48.221Z,78.82
2022-11-18T03:45:17.079Z,78.74
2022-11-18T03:47:45.181Z,78.50
2022-11-18T03:50:12.613Z,78.12
2022-11-18T03:52:39.293Z,78.25
2022-11-18T03:55:09.079Z,78.28
2022-11-18T03:57:44.919Z,78.17
2022-11-18T04:00:12.977Z,78.16
2022-11-18T04:02:39.657Z,78.21
2022-11-18T04:05:06.885Z,78.23
2022-11-18T04:07:38.443Z,78.24
2022-11-18T04:10:21.265Z,78.30
2022-11-18T04:12:53.351Z,78.00
2022-11-18T04:15:20.504Z,77.91
2022-11-18T04:17:47.134Z,77.73
2022-11-18T04:20:17.436Z,77.49
2022-11-18T04:22:44.327Z,77.68
2022-11-18T04:25:10.925Z,77.60
2022-11-18T04:27:37.632Z,77.68
2022-11-18T04:30:05.035Z,77.90
2022-11-18T04:32:31.674Z,77.54
2022-11-18T04:34:58.362Z,77.25
2022-11-18T04:37:25.094Z,77.15
2022-11-18T04:39:51.688Z,77.22
2022-11-18T04:42:18.396Z,76.68
2022-11-18T04:44:44.996Z,76.98
2022-11-18T04:47:11.677Z,76.66
2022-11-18T04:49:38.308Z,76.51
2022-11-18T04:52:05.107Z,76.72
2022-11-18T04:54:31.743Z,76.96
2022-11-18T04:56:58.399Z,76.94
2022-11-18T04:59:25.724Z,76.84
2022-11-18T05:01:52.413Z,76.99
2022-11-18T05:04:20.046Z,76.83
2022-11-18T05:06:46.678Z,77.00
2022-11-18T05:09:13.390Z,76.86
2022-11-18T05:11:58.895Z,76.92
2022-11-18T05:14:28.806Z,76.94
2022-11-18T05:16:55.760Z,76.56
2022-11-18T05:19:22.405Z,76.81
2022-11-18T05:21:49.035Z,76.79
2022-11-18T05:24:15.708Z,76.74
2022-11-18T05:26:42.351Z,76.82
2022-11-18T05:29:08.980Z,76.64
2022-11-18T05:31:35.673Z,76.62
2022-11-18T05:34:02.416Z,76.51
2022-11-18T05:36:29.060Z,76.61
2022-11-18T05:38:58.160Z,76.99
2022-11-18T05:41:43.601Z,77.06
2022-11-18T05:44:10.256Z,77.18
2022-11-18T05:46:36.977Z,77.09
2022-11-18T05:49:03.631Z,77.21
2022-11-18T05:51:30.266Z,77.09
2022-11-18T05:53:57.092Z,76.83
2022-11-18T05:56:25.374Z,76.86
2022-11-18T05:58:52.057Z,77.48
2022-11-18T06:01:20.589Z,76.95
2022-11-18T06:03:47.264Z,76.60
2022-11-18T06:06:13.962Z,76.42
2022-11-18T06:08:43.427Z,76.14
2022-11-18T06:11:10.972Z,76.50
2022-11-18T06:13:39.820Z,76.40
2022-11-18T06:16:06.652Z,76.25
2022-11-18T06:18:33.373Z,76.50
2022-11-18T06:21:01.307Z,76.26
2022-11-18T06:23:28.642Z,76.39
2022-11-18T06:25:55.271Z,76.73
2022-11-18T06:28:21.945Z,76.73
2022-11-18T06:30:48.593Z,76.88
2022-11-18T06:33:15.238Z,76.78
2022-11-18T06:35:42.541Z,77.15
2022-11-18T06:38:09.199Z,76.89
2022-11-18T06:40:37.230Z,77.23
2022-11-18T06:43:25.697Z,77.59
2022-11-18T06:46:11.013Z,77.40
2022-11-18T06:48:37.637Z,77.52
2022-11-18T06:51:07.740Z,78.02
2022-11-18T06:53:53.056Z,77.94
2022-11-18T06:56:20.347Z,77.73
2022-11-18T06:58:47.128Z,77.64
2022-11-18T07:01:24.785Z,77.58
2022-11-18T07:03:51.581Z,77.30
2022-11-18T07:06:19.326Z,77.17
2022-11-18T07:08:46.005Z,77.18
2022-11-18T07:11:13.476Z,77.26
2022-11-18T07:13:43.578Z,77.45
2022-11-18T07:16:14.894Z,77.36
2022-11-18T07:18:42.245Z,77.53
2022-11-18T07:21:10.142Z,77.42
2022-11-18T07:23:36.778Z,77.44
2022-11-18T07:26:03.453Z,77.66
2022-11-18T07:28:30.397Z,77.96
2022-11-18T07:31:06.330Z,78.13
2022-11-18T07:33:33.093Z,78.50
2022-11-18T07:36:03.337Z,78.73
2022-11-18T07:38:29.995Z,79.07
2022-11-18T07:41:02.729Z,79.16
2022-11-18T07:43:29.337Z,79.14
2022-11-18T07:45:56.042Z,79.03
2022-11-18T07:48:22.733Z,79.54
2022-11-18T07:50:49.396Z,79.30
2022-11-18T07:53:16.038Z,79.11
2022-11-18T07:55:42.682Z,79.15
2022-11-18T07:58:09.365Z,79.06
2022-11-18T08:00:36.008Z,78.65
2022-11-18T08:03:02.665Z,79.01
2022-11-18T08:05:29.353Z,78.73
2022-11-18T08:07:56.023Z,78.61
2022-11-18T08:10:22.723Z,78.22
2022-11-18T08:12:49.426Z,78.20
2022-11-18T08:15:16.087Z,78.20
2022-11-18T08:17:42.829Z,78.21
2022-11-18T08:20:09.803Z,77.98
2022-11-18T08:22:36.464Z,78.10
2022-11-18T08:25:03.320Z,77.77
2022-11-18T08:27:29.956Z,78.03
2022-11-18T08:29:56.585Z,77.94
2022-11-18T08:32:23.436Z,77.95
2022-11-18T08:34:50.543Z,78.07
2022-11-18T08:37:17.236Z,77.71
2022-11-18T08:39:43.937Z,77.87
2022-11-18T08:42:10.768Z,77.74
2022-11-18T08:44:37.389Z,77.82
2022-11-18T08:47:04.140Z,77.89
2022-11-18T08:49:32.494Z,77.73
2022-11-18T08:51:59.355Z,77.55
2022-11-18T08:54:26.054Z,77.45
2022-11-18T08:56:52.761Z,77.48
2022-11-18T08:59:19.578Z,77.03
2022-11-18T09:01:46.630Z,77.22
2022-11-18T09:04:13.354Z,76.88
2022-11-18T09:06:40.404Z,76.75
2022-11-18T09:09:07.871Z,76.80
2022-11-18T09:11:34.580Z,77.27
2022-11-18T09:14:53.378Z,77.73
2022-11-18T09:16:47.912Z,77.55
2022-11-18T09:22:01.738Z,77.10
2022-11-18T09:24:28.463Z,76.88
2022-11-18T09:26:55.115Z,76.77
2022-11-18T09:29:25.983Z,77.03
2022-11-18T09:31:52.939Z,76.74
2022-11-18T09:34:19.909Z,76.66
2022-11-18T09:36:46.697Z,77.09
2022-11-18T09:39:13.372Z,76.79
2022-11-18T09:41:45.230Z,77.08
2022-11-18T09:44:21.228Z,77.20
2022-11-18T09:46:47.947Z,77.40
2022-11-18T09:49:28.832Z,77.69
2022-11-18T09:51:55.462Z,77.41
2022-11-18T09:54:23.157Z,77.42
2022-11-18T09:56:50.423Z,77.38
2022-11-18T09:59:17.820Z,77.27
2022-11-18T10:01:44.564Z,77.28
2022-11-18T10:04:15.788Z,77.29
2022-11-18T10:06:42.627Z,77.19
2022-11-18T10:09:20.017Z,77.77
2022-11-18T10:12:05.140Z,78.34
2022-11-18T10:14:51.572Z,78.14
2022-11-18T10:17:33.735Z,78.33
2022-11-18T10:20:12.551Z,78.42
2022-11-18T10:22:43.159Z,78.16
2022-11-18T10:25:13.620Z,78.00
2022-11-18T10:27:40.967Z,77.74
2022-11-18T10:30:20.627Z,77.91
2022-11-18T10:32:53.018Z,77.83
2022-11-18T10:35:23.654Z,77.77
2022-11-18T10:38:07.460Z,77.93
2022-11-18T10:40:34.827Z,77.69
2022-11-18T10:43:01.500Z,77.25
2022-11-18T10:45:31.957Z,77.15
2022-11-18T10:48:14.174Z,76.78
2022-11-18T10:50:41.599Z,76.01
2022-11-18T10:53:27.037Z,76.26
2022-11-18T10:56:00.438Z,76.11
2022-11-18T10:58:27.376Z,76.46
2022-11-18T11:00:54.072Z,76.24
2022-11-18T11:03:20.670Z,76.58
2022-11-18T11:05:47.295Z,76.75
2022-11-18T11:08:36.235Z,76.54
2022-11-18T11:11:04.472Z,76.80
2022-11-18T11:13:31.195Z,76.90
2022-11-18T11:15:58.861Z,76.66
2022-11-18T11:18:42.307Z,76.95
2022-11-18T11:21:16.001Z,76.80
2022-11-18T11:23:42.766Z,76.78
2022-11-18T11:29:12.237Z,76.68
2022-11-18T11:31:38.879Z,76.79
2022-11-18T11:34:11.768Z,76.91
2022-11-18T11:36:50.805Z,77.02
2022-11-18T11:39:26.760Z,76.77
2022-11-18T11:41:56.792Z,76.98
2022-11-18T11:44:32.295Z,76.59
2022-11-18T11:47:32.478Z,77.05
2022-11-18T11:50:05.382Z,76.46
2022-11-18T11:52:33.923Z,76.74
2022-11-18T11:55:04.658Z,76.63
2022-11-18T11:58:00.822Z,76.82
2022-11-18T12:00:28.907Z,77.10
2022-11-18T12:03:18.190Z,76.94
2022-11-18T12:05:44.885Z,77.04
2022-11-18T12:08:21.279Z,76.61
2022-11-18T12:10:52.827Z,76.90
2022-11-18T12:13:38.230Z,76.76
2022-11-18T12:16:08.211Z,76.70
2022-11-18T12:19:07.325Z,77.00
2022-11-18T12:21:46.086Z,76.88
2022-11-18T12:24:25.889Z,76.61
2022-11-18T12:26:52.988Z,76.44
2022-11-18T12:29:19.955Z,76.95
2022-11-18T12:31:47.143Z,77.14
2022-11-18T12:34:18.572Z,77.43
2022-11-18T12:36:45.179Z,77.65
2022-11-18T12:39:30.077Z,77.60
2022-11-18T12:42:15.506Z,77.67
2022-11-18T12:44:42.547Z,78.09
2022-11-18T12:47:09.802Z,77.82
2022-11-18T12:49:36.430Z,77.70
2022-11-18T12:52:03.732Z,78.04
2022-11-18T12:54:34.258Z,78.33
2022-11-18T12:57:02.226Z,77.97
2022-11-18T12:59:33.114Z,77.92
2022-11-18T13:02:23.456Z,78.02
2022-11-18T13:05:09.441Z,77.94
2022-11-18T13:08:04.586Z,78.03
2022-11-18T13:10:32.289Z,78.05
2022-11-18T13:12:59.186Z,78.49
2022-11-18T13:15:44.939Z,78.43
2022-11-18T13:18:13.575Z,78.96
2022-11-18T13:20:40.675Z,78.93
2022-11-18T13:23:29.142Z,79.09
2022-11-18T13:26:02.429Z,79.16
2022-11-18T13:28:39.240Z,79.33
2022-11-18T13:31:15.058Z,79.42
2022-11-18T13:33:41.726Z,79.37
2022-11-18T13:36:24.465Z,79.38
2022-11-18T16:27:42.608Z,86.19
2022-11-18T16:30:29.507Z,85.83
2022-11-18T16:32:56.366Z,85.95
2022-11-18T16:35:23.161Z,86.28
2022-11-18T16:37:49.913Z,85.94
2022-11-18T16:40:17.148Z,86.11
2022-11-18T16:42:43.927Z,85.98
2022-11-18T16:45:10.966Z,86.05
2022-11-18T16:47:38.490Z,86.14
2022-11-18T16:50:05.506Z,86.04
2022-11-18T16:52:32.228Z,86.01
2022-11-18T16:54:58.964Z,86.20
2022-11-18T16:57:25.756Z,86.28
2022-11-18T16:59:52.493Z,86.04
2022-11-18T17:02:24.975Z,86.26
2022-11-18T17:04:51.748Z,86.38
2022-11-18T17:07:18.523Z,86.27
2022-11-18T17:09:45.410Z,86.45
2022-11-18T17:12:12.375Z,86.46
2022-11-18T17:14:40.281Z,86.68
2022-11-18T17:17:07.224Z,86.67
2022-11-18T17:19:34.026Z,86.81
2022-11-18T17:22:00.717Z,86.63
2022-11-18T17:24:27.468Z,86.93
2022-11-18T17:26:54.526Z,87.23
2022-11-18T17:29:21.628Z,87.13
2022-11-18T17:31:48.760Z,87.43
2022-11-18T17:34:15.847Z,87.46
2022-11-18T17:36:43.253Z,87.67
2022-11-18T17:39:11.021Z,87.80
2022-11-18T17:41:56.802Z,88.16
2022-11-18T17:44:24.561Z,88.17
2022-11-18T17:46:51.609Z,88.60
2022-11-18T17:49:18.532Z,88.69
2022-11-18T17:51:48.249Z,88.81
2022-11-18T17:54:14.996Z,88.88
2022-11-18T17:56:41.886Z,89.43
2022-11-18T17:59:08.607Z,89.18
2022-11-18T18:01:36.166Z,89.25
2022-11-18T18:04:03.112Z,89.56
2022-11-18T18:06:29.784Z,89.56
2022-11-18T18:08:57.431Z,89.79
2022-11-18T18:11:24.414Z,89.89
2022-11-18T18:14:09.899Z,89.80
2022-11-18T18:16:36.762Z,90.17
2022-11-18T18:19:04.739Z,90.24
2022-11-18T18:21:31.787Z,90.07
2022-11-18T18:23:58.620Z,90.09
2022-11-18T18:26:29.925Z,90.28
2022-11-18T18:28:59.412Z,90.16
2022-11-18T18:31:26.738Z,90.51
2022-11-18T18:33:53.469Z,90.44
2022-11-18T18:36:21.003Z,90.93
2022-11-18T18:38:47.843Z,90.76
2022-11-18T18:41:15.370Z,90.89
2022-11-18T18:43:42.105Z,90.93
2022-11-18T18:46:36.226Z,91.04
2022-11-18T18:49:03.075Z,91.45
2022-11-18T18:51:30.778Z,91.38
2022-11-18T18:53:58.420Z,91.46
2022-11-18T18:56:25.467Z,91.50
2022-11-18T18:58:52.151Z,91.50
2022-11-18T19:01:19.402Z,91.47
2022-11-18T19:03:46.308Z,91.57
2022-11-18T19:09:03.525Z,91.53
2022-11-18T19:11:49.123Z,91.51
2022-11-18T19:14:18.124Z,91.59
2022-11-18T19:16:45.460Z,91.72
2022-11-18T19:19:17.020Z,91.53
2022-11-18T19:21:45.258Z,91.77
2022-11-18T19:24:34.767Z,91.92
2022-11-18T19:26:59.094Z,91.87
2022-11-18T19:29:28.305Z,92.03
2022-11-18T19:31:55.431Z,92.12
2022-11-18T19:34:22.190Z,92.03
2022-11-18T19:36:49.037Z,92.47
2022-11-18T19:39:16.047Z,92.15
2022-11-18T19:41:43.021Z,92.57
2022-11-18T19:44:09.867Z,92.44
2022-11-18T19:46:37.572Z,92.64
2022-11-18T19:49:04.285Z,92.62
2022-11-18T19:51:31.013Z,92.67
2022-11-18T19:53:59.776Z,92.74
2022-11-18T19:56:26.800Z,92.78
2022-11-18T19:58:54.894Z,92.70
2022-11-18T20:01:25.708Z,92.90
2022-11-18T20:03:53.681Z,92.92
2022-11-18T20:06:22.606Z,93.04
2022-11-18T20:08:49.473Z,93.16
2022-11-18T20:11:16.584Z,93.24
2022-11-18T20:13:45.301Z,93.43
2022-11-18T20:16:12.816Z,93.41
2022-11-18T20:18:40.353Z,93.44
2022-11-18T20:21:09.333Z,93.60
2022-11-18T20:23:36.564Z,93.58
2022-11-18T20:26:09.874Z,93.67
2022-11-18T20:28:38.669Z,93.58
2022-11-18T20:31:06.306Z,93.81
2022-11-18T20:33:37.029Z,93.76
2022-11-18T20:36:11.560Z,93.73
2022-11-18T20:38:38.753Z,93.91
2022-11-18T20:41:07.011Z,93.85
2022-11-18T20:43:34.215Z,94.00
2022-11-18T20:46:01.135Z,94.21
2022-11-18T20:48:27.976Z,93.89
2022-11-18T20:50:54.659Z,94.14
2022-11-18T20:53:25.392Z,94.19
2022-11-18T20:55:52.159Z,94.26
2022-11-18T20:58:18.970Z,94.26
2022-11-18T21:00:46.351Z,94.32
2022-11-18T21:03:13.137Z,94.47
2022-11-18T21:05:40.707Z,94.51
2022-11-18T21:08:10.593Z,94.49
2022-11-18T21:10:37.405Z,94.27
2022-11-18T21:13:22.934Z,94.35
2022-11-18T21:15:49.715Z,94.44
2022-11-18T21:18:16.420Z,94.61
2022-11-18T21:21:01.585Z,94.77
2022-11-18T21:23:28.339Z,94.52
2022-11-18T21:25:55.214Z,94.77
2022-11-18T21:28:21.819Z,94.59
2022-11-18T21:30:48.708Z,94.83
2022-11-18T21:33:15.352Z,95.12
2022-11-18T21:35:42.102Z,94.97
2022-11-18T21:38:08.928Z,94.85
2022-11-18T21:40:35.585Z,95.04
2022-11-18T21:43:02.406Z,95.05
2022-11-18T21:45:29.059Z,95.15
2022-11-18T21:47:55.924Z,95.15
2022-11-18T21:50:22.626Z,95.42
2022-11-18T21:52:49.679Z,95.32
2022-11-18T21:55:16.731Z,95.05
2022-11-18T21:57:43.492Z,95.28
2022-11-18T22:00:11.053Z,95.38
2022-11-18T22:02:38.506Z,95.49
2022-11-18T22:05:07.061Z,95.29
2022-11-18T22:07:34.157Z,95.53
2022-11-18T22:10:00.952Z,95.51
2022-11-18T22:12:27.713Z,95.28
2022-11-18T22:14:54.428Z,95.49
2022-11-18T22:17:21.104Z,95.56
2022-11-18T22:19:47.811Z,95.19
2022-11-18T22:22:14.647Z,95.58
2022-11-18T22:24:41.414Z,95.38
2022-11-18T22:27:11.554Z,95.57
2022-11-18T22:29:38.520Z,95.53
2022-11-18T22:32:05.296Z,95.53
2022-11-18T22:34:32.021Z,95.74
2022-11-18T22:36:58.709Z,95.61
2022-11-18T22:39:25.538Z,95.49
2022-11-18T22:42:11.117Z,95.57
2022-11-18T22:44:37.855Z,95.58
2022-11-18T22:47:04.602Z,95.66
2022-11-18T22:49:31.371Z,95.75
2022-11-18T22:51:58.285Z,95.70
2022-11-18T22:54:40.712Z,95.59
2022-11-18T22:57:07.890Z,95.86
2022-11-18T22:59:34.625Z,95.76
2022-11-18T23:02:01.933Z,95.71
2022-11-18T23:04:28.712Z,95.88
2022-11-18T23:06:55.460Z,95.86
2022-11-18T23:09:22.403Z,95.88
2022-11-18T23:12:08.107Z,95.91
2022-11-18T23:14:34.855Z,95.95
2022-11-18T23:17:01.586Z,96.14
2022-11-18T23:19:28.312Z,96.06
2022-11-18T23:21:55.043Z,96.09
2022-11-18T23:24:22.039Z,96.04
2022-11-18T23:26:48.812Z,96.14
2022-11-18T23:29:15.760Z,96.29
2022-11-18T23:31:43.713Z,96.12
2022-11-18T23:34:11.982Z,96.24
2022-11-18T23:36:39.004Z,96.19
2022-11-18T23:39:06.053Z,96.28
2022-11-18T23:41:32.722Z,96.31
2022-11-18T23:43:59.584Z,96.53
2022-11-18T23:46:27.654Z,96.48
2022-11-18T23:48:54.372Z,96.43
2022-11-18T23:51:22.045Z,96.55
2022-11-18T23:53:55.019Z,96.68
2022-11-18T23:56:23.175Z,96.59
2022-11-18T23:58:51.295Z,96.87
